createdAt,value
2018-03-14T00:00:02.386Z,10.13
2018-03-14T00:02:30.424Z,10.70
2018-03-14T00:04:58.717Z,14.07
2018-03-14T00:07:27.745Z,12.43
2018-03-14T00:09:56.046Z,12.33
2018-03-14T00:12:25.097Z,15.00
2018-03-14T00:14:54.114Z,12.57
2018-03-14T00:17:22.374Z,8.60
2018-03-14T00:19:50.659Z,11.93
2018-03-14T00:22:30.912Z,7.03
2018-03-14T00:24:59.182Z,11.85
2018-03-14T00:27:27.465Z,9.60
2018-03-14T00:29:55.715Z,10.63
2018-03-14T00:32:24.717Z,14.90
2018-03-14T00:34:53.014Z,11.30
2018-03-14T00:37:21.322Z,11.87
2018-03-14T00:39:49.558Z,9.33
2018-03-14T00:42:17.814Z,9.33
2018-03-14T00:44:46.847Z,8.33
2018-03-14T00:47:15.075Z,10.70
2018-03-14T00:49:44.078Z,8.83
2018-03-14T00:52:13.121Z,13.07
2018-03-14T00:54:41.380Z,10.90
2018-03-14T00:57:09.640Z,12.73
2018-03-14T00:59:37.950Z,9.27
2018-03-14T01:02:06.176Z,11.60
2018-03-14T01:04:34.434Z,8.87
2018-03-14T01:07:02.731Z,8.30
2018-03-14T01:09:31.753Z,12.47
2018-03-14T01:12:00.008Z,8.17
2018-03-14T01:14:28.273Z,9.80
2018-03-14T01:16:56.517Z,9.97
2018-03-14T01:19:24.744Z,9.63
2018-03-14T01:21:53.056Z,12.43
2018-03-14T01:24:21.306Z,13.07
2018-03-14T01:26:49.565Z,10.47
2018-03-14T01:29:17.836Z,11.60
2018-03-14T01:31:46.099Z,8.67
2018-03-14T01:34:15.120Z,11.77
2018-03-14T01:36:43.419Z,8.97
2018-03-14T01:39:11.660Z,10.83
2018-03-14T01:41:39.895Z,11.30
2018-03-14T01:44:08.173Z,9.73
2018-03-14T01:46:36.437Z,11.23
2018-03-14T01:49:04.696Z,10.43
2018-03-14T01:51:33.747Z,12.37
2018-03-14T01:54:02.029Z,12.20
2018-03-14T01:56:31.985Z,13.37
2018-03-14T01:59:00.218Z,8.73
2018-03-14T02:01:28.513Z,10.23
2018-03-14T02:03:56.767Z,9.17
2018-03-14T02:06:25.821Z,10.27
2018-03-14T02:08:54.064Z,12.13
2018-03-14T02:11:22.362Z,10.60
2018-03-14T02:13:51.389Z,11.80
2018-03-14T02:16:20.423Z,9.63
2018-03-14T02:18:48.676Z,10.17
2018-03-14T02:21:16.910Z,10.00
2018-03-14T02:23:45.189Z,9.37
2018-03-14T02:26:13.414Z,9.77
2018-03-14T02:28:41.700Z,9.27
2018-03-14T02:31:09.964Z,8.73
2018-03-14T02:33:38.216Z,7.97
2018-03-14T02:36:07.235Z,8.13
2018-03-14T02:38:35.502Z,7.33
2018-03-14T02:41:03.746Z,6.67
2018-03-14T02:43:31.976Z,7.20
2018-03-14T02:46:00.252Z,5.85
2018-03-14T02:48:28.476Z,5.00
2018-03-14T02:50:57.514Z,6.83
2018-03-14T02:53:25.767Z,7.13
2018-03-14T02:55:54.782Z,8.17
2018-03-14T02:58:23.034Z,4.97
2018-03-14T03:00:52.060Z,7.03
2018-03-14T03:03:20.439Z,9.90
2018-03-14T03:05:48.695Z,6.20
2018-03-14T03:08:16.946Z,6.77
2018-03-14T03:10:45.967Z,8.67
2018-03-14T03:13:14.229Z,6.13
2018-03-14T03:15:43.255Z,5.70
2018-03-14T03:18:11.539Z,4.87
2018-03-14T03:20:39.778Z,9.80
2018-03-14T03:23:08.071Z,7.90
2018-03-14T03:25:36.313Z,8.63
2018-03-14T03:28:05.305Z,9.37
2018-03-14T03:30:34.336Z,8.93
2018-03-14T03:33:02.611Z,9.40
2018-03-14T03:35:30.873Z,8.53
2018-03-14T03:37:59.105Z,8.80
2018-03-14T03:40:27.398Z,6.80
2018-03-14T03:42:56.417Z,9.80
2018-03-14T03:45:24.657Z,7.50
2018-03-14T03:47:52.941Z,9.73
2018-03-14T03:50:21.968Z,8.43
2018-03-14T03:52:50.224Z,7.77
2018-03-14T03:55:19.272Z,7.67
2018-03-14T03:57:47.536Z,11.30
2018-03-14T04:00:15.810Z,7.30
2018-03-14T04:02:44.203Z,9.00
2018-03-14T04:05:12.450Z,9.83
2018-03-14T04:07:41.098Z,10.70
2018-03-14T04:10:10.133Z,10.17
2018-03-14T04:12:38.372Z,7.37
2018-03-14T04:15:07.365Z,8.33
2018-03-14T04:17:36.390Z,7.10
2018-03-14T04:20:04.648Z,5.33
2018-03-14T04:22:32.933Z,7.03
2018-03-14T04:25:01.209Z,8.33
2018-03-14T04:27:29.447Z,7.47
2018-03-14T04:29:57.713Z,8.83
2018-03-14T04:32:25.991Z,6.73
2018-03-14T04:34:54.238Z,8.10
2018-03-14T04:37:22.520Z,8.53
2018-03-14T04:39:50.778Z,6.43
2018-03-14T04:42:19.059Z,4.90
2018-03-14T04:44:47.346Z,6.53
2018-03-14T04:47:15.721Z,4.60
2018-03-14T04:49:43.989Z,5.17
2018-03-14T04:52:13.043Z,6.30
2018-03-14T04:54:42.028Z,7.73
2018-03-14T04:57:11.050Z,7.03
2018-03-14T04:59:39.341Z,6.20
2018-03-14T05:02:07.609Z,6.43
2018-03-14T05:04:35.919Z,7.43
2018-03-14T05:07:04.164Z,6.47
2018-03-14T05:09:32.409Z,5.07
2018-03-14T05:12:01.471Z,9.03
2018-03-14T05:14:29.710Z,7.63
2018-03-14T05:16:57.964Z,7.20
2018-03-14T05:19:26.225Z,6.60
2018-03-14T05:21:55.224Z,7.47
2018-03-14T05:24:23.495Z,5.13
2018-03-14T05:26:52.550Z,8.73
2018-03-14T05:29:20.845Z,9.37
2018-03-14T05:31:49.026Z,5.93
2018-03-14T05:34:18.060Z,7.67
2018-03-14T05:36:46.309Z,7.27
2018-03-14T05:39:15.359Z,5.12
2018-03-14T05:41:43.619Z,11.30
2018-03-14T05:44:11.868Z,9.33
2018-03-14T05:46:40.158Z,7.50
2018-03-14T05:49:08.381Z,9.87
2018-03-14T05:51:36.689Z,6.03
2018-03-14T05:54:05.749Z,7.20
2018-03-14T05:56:34.039Z,8.73
2018-03-14T05:59:02.298Z,7.83
2018-03-14T06:01:31.345Z,8.47
2018-03-14T06:03:59.603Z,7.27
2018-03-14T06:06:28.623Z,9.97
2018-03-14T06:08:56.902Z,6.47
2018-03-14T06:11:25.154Z,10.37
2018-03-14T06:13:53.534Z,7.63
2018-03-14T06:16:22.549Z,7.63
2018-03-14T06:18:50.786Z,8.50
2018-03-14T06:21:19.814Z,9.30
2018-03-14T06:23:48.066Z,6.20
2018-03-14T06:26:17.080Z,9.87
2018-03-14T06:28:45.400Z,7.00
2018-03-14T06:31:13.638Z,10.07
2018-03-14T06:33:41.940Z,8.83
2018-03-14T06:36:10.354Z,9.38
2018-03-14T06:38:39.408Z,9.63
2018-03-14T06:41:07.710Z,10.13
2018-03-14T06:43:35.933Z,10.17
2018-03-14T06:46:04.213Z,11.23
2018-03-14T06:48:32.475Z,11.67
2018-03-14T06:51:00.796Z,11.50
2018-03-14T06:53:29.016Z,9.90
2018-03-14T06:55:58.380Z,11.20
2018-03-14T06:58:38.457Z,10.47
2018-03-14T07:01:19.461Z,14.20
2018-03-14T07:03:59.487Z,15.63
2018-03-14T07:06:28.529Z,12.20
2018-03-14T07:08:56.761Z,10.77
2018-03-14T07:11:25.060Z,12.03
2018-03-14T07:13:53.318Z,13.40
2018-03-14T07:16:21.602Z,11.13
2018-03-14T07:18:49.830Z,12.27
2018-03-14T07:21:18.062Z,12.13
2018-03-14T07:23:46.316Z,10.90
2018-03-14T07:26:14.605Z,13.82
2018-03-14T07:28:42.883Z,10.43
2018-03-14T07:31:11.153Z,9.73
2018-03-14T07:33:40.195Z,9.87
2018-03-14T07:36:08.452Z,11.23
2018-03-14T07:38:36.742Z,12.33
2018-03-14T07:41:05.306Z,10.37
2018-03-14T07:43:33.612Z,11.97
2018-03-14T07:46:01.886Z,11.40
2018-03-14T07:48:30.109Z,10.43
2018-03-14T07:50:58.427Z,11.07
2018-03-14T07:53:26.657Z,12.03
2018-03-14T07:55:54.928Z,10.27
2018-03-14T07:58:23.193Z,12.43
2018-03-14T08:00:52.213Z,10.07
2018-03-14T08:03:20.490Z,9.13
2018-03-14T08:05:48.740Z,9.50
2018-03-14T08:08:17.319Z,9.10
2018-03-14T08:10:46.317Z,9.53
2018-03-14T08:13:16.292Z,7.53
2018-03-14T08:15:44.519Z,8.63
2018-03-14T08:18:12.754Z,8.03
2018-03-14T08:20:41.006Z,8.67
2018-03-14T08:23:09.235Z,9.00
2018-03-14T08:25:38.268Z,7.33
2018-03-14T08:28:06.570Z,7.73
2018-03-14T08:30:34.820Z,7.63
2018-03-14T08:33:03.042Z,6.77
2018-03-14T08:35:32.097Z,7.10
2018-03-14T08:38:00.326Z,7.00
2018-03-14T08:40:29.326Z,7.33
2018-03-14T08:42:57.596Z,6.37
2018-03-14T08:45:26.641Z,7.20
2018-03-14T08:47:54.866Z,6.33
2018-03-14T08:50:23.121Z,5.10
2018-03-14T08:52:51.373Z,4.83
2018-03-14T08:55:19.603Z,4.40
2018-03-14T08:57:47.853Z,3.90
2018-03-14T09:00:16.880Z,4.63
2018-03-14T09:02:45.155Z,4.13
2018-03-14T09:05:13.402Z,2.80
2018-03-14T09:07:42.411Z,3.47
2018-03-14T09:10:10.693Z,2.30
2018-03-14T09:12:38.937Z,4.10
2018-03-14T09:15:07.937Z,2.67
2018-03-14T09:17:37.031Z,2.40
2018-03-14T09:20:06.049Z,3.50
2018-03-14T09:22:34.326Z,3.13
2018-03-14T09:25:02.576Z,2.67
2018-03-14T09:27:31.649Z,2.62
2018-03-14T09:29:59.863Z,3.30
2018-03-14T09:32:28.306Z,3.27
2018-03-14T09:34:56.532Z,2.90
2018-03-14T09:37:24.777Z,3.00
2018-03-14T09:39:53.808Z,3.07
2018-03-14T09:42:22.038Z,3.50
2018-03-14T09:44:51.057Z,2.70
2018-03-14T09:47:19.345Z,3.53
2018-03-14T09:49:47.568Z,2.40
2018-03-14T09:52:15.825Z,2.73
2018-03-14T09:54:44.095Z,2.95
2018-03-14T09:57:12.379Z,2.93
2018-03-14T09:59:40.634Z,2.37
2018-03-14T10:02:08.878Z,2.10
2018-03-14T10:04:37.911Z,2.20
2018-03-14T10:07:06.177Z,3.43
2018-03-14T10:09:34.407Z,2.80
2018-03-14T10:12:03.446Z,2.37
2018-03-14T10:14:31.701Z,1.73
2018-03-14T10:16:59.994Z,2.77
2018-03-14T10:19:28.213Z,2.63
2018-03-14T10:21:56.449Z,2.50
2018-03-14T10:24:24.702Z,2.17
2018-03-14T10:26:53.000Z,2.43
2018-03-14T10:29:21.226Z,2.97
2018-03-14T10:31:50.254Z,1.90
2018-03-14T10:34:18.530Z,2.37
2018-03-14T10:36:46.829Z,2.00
2018-03-14T10:39:15.021Z,1.85
2018-03-14T10:41:44.957Z,1.93
2018-03-14T10:44:13.205Z,1.80
2018-03-14T10:46:42.414Z,2.40
2018-03-14T10:49:10.669Z,1.50
2018-03-14T10:51:38.880Z,1.63
2018-03-14T10:54:07.158Z,2.23
2018-03-14T10:56:35.383Z,2.07
2018-03-14T10:59:03.953Z,4.00
2018-03-14T11:01:37.849Z,1.90
2018-03-14T11:04:06.832Z,1.77
2018-03-14T11:06:35.844Z,2.40
2018-03-14T11:09:04.861Z,2.80
2018-03-14T11:11:33.087Z,2.13
2018-03-14T11:14:02.142Z,3.80
2018-03-14T11:16:30.425Z,2.47
2018-03-14T11:18:58.672Z,2.90
2018-03-14T11:21:26.958Z,2.57
2018-03-14T11:23:55.222Z,3.33
2018-03-14T11:26:23.447Z,3.80
2018-03-14T11:28:51.721Z,3.07
2018-03-14T11:31:19.958Z,3.57
2018-03-14T11:33:48.232Z,4.20
2018-03-14T11:36:16.462Z,3.20
2018-03-14T11:38:45.533Z,3.20
2018-03-14T11:41:18.534Z,2.43
2018-03-14T11:43:46.836Z,2.57
2018-03-14T11:46:16.730Z,3.13
2018-03-14T11:48:45.762Z,3.30
2018-03-14T11:51:14.027Z,3.03
2018-03-14T11:53:42.293Z,3.73
2018-03-14T11:56:10.564Z,4.00
2018-03-14T11:58:39.565Z,4.07
2018-03-14T12:01:07.836Z,3.43
2018-03-14T12:03:36.838Z,3.67
2018-03-14T12:06:05.135Z,3.70
2018-03-14T12:08:33.412Z,3.23
2018-03-14T12:11:01.682Z,5.20
2018-03-14T12:13:29.928Z,2.93
2018-03-14T12:15:59.082Z,2.20
2018-03-14T12:18:27.345Z,1.63
2018-03-14T12:20:55.673Z,2.50
2018-03-14T12:23:23.897Z,1.87
2018-03-14T12:25:52.142Z,2.83
2018-03-14T12:28:20.402Z,2.63
2018-03-14T12:30:48.744Z,2.63
2018-03-14T12:33:17.678Z,3.73
2018-03-14T12:35:45.937Z,2.33
2018-03-14T12:38:14.950Z,2.63
2018-03-14T12:40:43.225Z,2.50
2018-03-14T12:43:11.509Z,2.90
2018-03-14T12:45:39.774Z,2.60
2018-03-14T12:48:08.039Z,2.67
2018-03-14T12:50:37.079Z,2.90
2018-03-14T12:53:05.298Z,2.55
2018-03-14T12:55:34.376Z,3.20
2018-03-14T12:58:02.604Z,2.40
2018-03-14T13:00:30.867Z,2.63
2018-03-14T13:02:59.137Z,3.23
2018-03-14T13:05:28.134Z,2.67
2018-03-14T13:07:56.427Z,2.97
2018-03-14T13:10:24.712Z,2.60
2018-03-14T13:12:52.971Z,3.20
2018-03-14T13:15:21.236Z,3.53
2018-03-14T13:17:49.539Z,3.12
2018-03-14T13:20:17.772Z,3.05
2018-03-14T13:22:46.798Z,2.83
2018-03-14T13:25:15.111Z,3.87
2018-03-14T13:27:43.364Z,3.10
2018-03-14T13:30:12.423Z,4.07
2018-03-14T13:32:40.689Z,2.97
2018-03-14T13:35:09.724Z,4.37
2018-03-14T13:37:37.991Z,2.97
2018-03-14T13:40:06.644Z,2.78
2018-03-14T13:42:35.659Z,2.80
2018-03-14T13:45:04.799Z,3.00
2018-03-14T13:47:33.105Z,5.53
2018-03-14T13:50:01.330Z,3.73
2018-03-14T13:52:29.593Z,3.77
2018-03-14T13:54:57.884Z,3.57
2018-03-14T13:57:27.810Z,3.53
2018-03-14T13:59:56.062Z,3.53
2018-03-14T14:02:24.332Z,4.65
2018-03-14T14:04:52.602Z,3.83
2018-03-14T14:07:20.861Z,3.43
2018-03-14T14:09:49.846Z,3.67
2018-03-14T14:12:18.873Z,5.60
2018-03-14T14:14:47.128Z,3.13
2018-03-14T14:17:16.148Z,3.53
2018-03-14T14:19:44.419Z,3.70
2018-03-14T14:22:12.651Z,3.85
2018-03-14T14:24:41.667Z,3.80
2018-03-14T14:27:10.729Z,3.80
2018-03-14T14:29:38.935Z,3.57
2018-03-14T14:32:07.171Z,3.87
2018-03-14T14:34:35.431Z,3.40
2018-03-14T14:37:03.688Z,4.03
2018-03-14T14:39:31.933Z,3.93
2018-03-14T14:42:00.234Z,3.47
2018-03-14T14:44:28.492Z,3.80
2018-03-14T14:46:57.510Z,4.77
2018-03-14T14:49:25.775Z,4.33
2018-03-14T14:51:54.025Z,4.70
2018-03-14T14:54:23.085Z,4.30
2018-03-14T14:56:51.351Z,6.77
2018-03-14T14:59:19.627Z,3.70
2018-03-14T15:01:47.887Z,4.17
2018-03-14T15:04:16.140Z,4.57
2018-03-14T15:06:44.390Z,5.83
2018-03-14T15:09:13.441Z,5.23
2018-03-14T15:11:41.711Z,4.80
2018-03-14T15:14:09.970Z,5.13
2018-03-14T15:16:38.246Z,4.23
2018-03-14T15:19:06.538Z,6.60
2018-03-14T15:21:34.785Z,4.63
2018-03-14T15:24:03.781Z,5.30
2018-03-14T15:26:32.123Z,4.50
2018-03-14T15:29:00.373Z,4.00
2018-03-14T15:31:29.389Z,4.23
2018-03-14T15:33:57.646Z,6.10
2018-03-14T15:36:25.942Z,4.60
2018-03-14T15:38:54.166Z,4.60
2018-03-14T15:41:22.459Z,4.67
2018-03-14T15:43:50.745Z,4.50
2018-03-14T15:46:19.022Z,4.70
2018-03-14T15:48:47.276Z,5.50
2018-03-14T15:51:15.586Z,4.13
2018-03-14T15:53:43.825Z,5.30
2018-03-14T15:56:12.092Z,4.67
2018-03-14T15:58:40.356Z,4.87
2018-03-14T16:01:08.714Z,4.60
2018-03-14T16:03:36.998Z,4.60
2018-03-14T16:06:06.066Z,5.87
2018-03-14T16:08:34.359Z,5.63
2018-03-14T16:11:02.586Z,5.70
2018-03-14T16:13:30.876Z,5.90
2018-03-14T16:15:59.862Z,6.45
2018-03-14T16:18:28.118Z,7.17
2018-03-14T16:20:56.385Z,6.37
2018-03-14T16:23:24.677Z,6.23
2018-03-14T16:25:52.943Z,7.17
2018-03-14T16:28:21.281Z,6.90
2018-03-14T16:30:49.507Z,6.77
2018-03-14T16:33:17.748Z,6.63
2018-03-14T16:35:46.808Z,7.47
2018-03-14T16:38:15.094Z,7.32
2018-03-14T16:40:43.364Z,8.87
2018-03-14T16:43:11.660Z,7.40
2018-03-14T16:45:39.918Z,8.47
2018-03-14T16:48:08.226Z,7.10
2018-03-14T16:50:37.073Z,7.80
2018-03-14T16:53:05.326Z,7.20
2018-03-14T16:55:33.564Z,7.45
2018-03-14T16:58:02.638Z,8.70
2018-03-14T17:00:30.859Z,8.40
2018-03-14T17:02:59.125Z,8.70
2018-03-14T17:05:27.400Z,8.40
2018-03-14T17:07:55.654Z,7.20
2018-03-14T17:10:24.709Z,7.53
2018-03-14T17:12:52.984Z,7.03
2018-03-14T17:15:21.242Z,7.47
2018-03-14T17:17:49.495Z,7.80
2018-03-14T17:20:17.800Z,8.23
2018-03-14T17:25:56.954Z,26.27
2018-03-14T17:28:25.267Z,8.40
2018-03-14T17:30:55.043Z,11.25
2018-03-14T17:33:23.325Z,11.30
2018-03-14T17:35:52.367Z,10.60
2018-03-14T17:38:20.666Z,12.60
2018-03-14T17:40:49.761Z,11.37
2018-03-14T17:43:18.069Z,12.03
2018-03-14T17:45:46.355Z,12.83
2018-03-14T17:48:15.604Z,12.25
2018-03-14T17:50:43.900Z,11.53
2018-03-14T17:53:12.175Z,12.30
2018-03-14T17:55:40.523Z,12.10
2018-03-14T17:58:08.793Z,12.50
2018-03-14T18:00:37.054Z,13.00
2018-03-14T18:03:05.378Z,11.63
2018-03-14T18:05:33.666Z,12.67
2018-03-14T18:08:01.983Z,11.20
2018-03-14T18:10:30.245Z,13.83
2018-03-14T18:12:58.624Z,11.43
2018-03-14T18:15:27.681Z,11.32
2018-03-14T18:17:56.099Z,13.00
2018-03-14T18:20:24.388Z,12.80
2018-03-14T18:22:52.697Z,11.98
2018-03-14T18:25:20.981Z,11.37
2018-03-14T18:27:49.283Z,12.52
2018-03-14T18:30:17.563Z,12.63
2018-03-14T18:32:45.846Z,12.30
2018-03-14T18:35:14.906Z,13.30
2018-03-14T18:37:43.174Z,12.33
2018-03-14T18:40:11.482Z,11.80
2018-03-14T18:42:40.614Z,12.50
2018-03-14T18:45:08.891Z,13.40
2018-03-14T18:47:37.207Z,13.50
2018-03-14T18:50:05.493Z,12.80
2018-03-14T18:52:33.787Z,14.60
2018-03-14T18:55:02.053Z,12.17
2018-03-14T18:57:30.370Z,14.47
2018-03-14T18:59:58.708Z,12.47
2018-03-14T19:02:27.034Z,13.20
2018-03-14T19:04:55.338Z,14.60
2018-03-14T19:07:23.625Z,13.77
2018-03-14T19:09:52.019Z,14.23
2018-03-14T19:12:21.171Z,14.40
2018-03-14T19:14:49.488Z,14.03
2018-03-14T19:17:18.560Z,14.10
2018-03-14T19:19:46.833Z,14.13
2018-03-14T19:22:15.144Z,16.03
2018-03-14T19:24:43.424Z,15.30
2018-03-14T19:27:11.747Z,15.53
2018-03-14T19:29:40.044Z,14.20
2018-03-14T19:32:08.396Z,16.00
2018-03-14T19:34:36.705Z,16.60
2018-03-14T19:37:05.902Z,15.43
2018-03-14T19:39:34.218Z,20.03
2018-03-14T19:42:03.221Z,14.30
2018-03-14T19:44:31.548Z,16.43
2018-03-14T19:46:59.900Z,15.47
2018-03-14T19:49:28.166Z,16.17
2018-03-14T19:51:56.484Z,14.67
2018-03-14T19:54:24.870Z,17.70
2018-03-14T19:56:53.476Z,16.17
2018-03-14T19:59:22.552Z,15.33
2018-03-14T20:01:50.826Z,15.37
2018-03-14T20:04:20.478Z,14.90
2018-03-14T20:06:48.766Z,16.70
2018-03-14T20:09:17.981Z,15.70
2018-03-14T20:11:46.249Z,15.40
2018-03-14T20:14:14.751Z,15.40
2018-03-14T20:16:43.078Z,15.70
2018-03-14T20:19:12.550Z,16.03
2018-03-14T20:21:41.345Z,13.97
2018-03-14T20:24:10.417Z,15.67
2018-03-14T20:26:38.765Z,14.77
2018-03-14T20:29:07.043Z,15.30
2018-03-14T20:31:35.362Z,13.63
2018-03-14T20:34:03.690Z,14.73
2018-03-14T20:36:31.978Z,14.83
2018-03-14T20:39:00.372Z,12.87
2018-03-14T20:41:28.668Z,16.07
2018-03-14T20:43:56.967Z,14.33
2018-03-14T20:46:26.020Z,13.73
2018-03-14T20:48:54.370Z,15.03
2018-03-14T20:51:22.643Z,14.00
2018-03-14T20:53:50.961Z,14.80
2018-03-14T20:56:19.230Z,14.67
2018-03-14T20:58:48.120Z,15.43
2018-03-14T21:01:17.205Z,14.67
2018-03-14T21:03:46.414Z,16.23
2018-03-14T21:06:14.744Z,14.70
2018-03-14T21:08:43.025Z,16.00
2018-03-14T21:11:11.385Z,14.80
2018-03-14T21:13:40.437Z,14.63
2018-03-14T21:16:08.772Z,16.13
2018-03-14T21:18:37.811Z,15.17
2018-03-14T21:21:06.116Z,15.53
2018-03-14T21:23:34.398Z,16.43
2018-03-14T21:26:03.513Z,16.83
2018-03-14T21:28:32.628Z,15.30
2018-03-14T21:31:00.910Z,15.37
2018-03-14T21:33:29.174Z,16.20
2018-03-14T21:35:59.365Z,14.93
2018-03-14T21:38:28.480Z,16.80
2018-03-14T21:40:56.831Z,16.30
2018-03-14T21:43:25.159Z,16.30
2018-03-14T21:45:53.454Z,15.10
2018-03-14T21:48:21.742Z,17.20
2018-03-14T21:50:50.031Z,16.57
2018-03-14T21:53:18.455Z,15.73
2018-03-14T21:55:46.734Z,16.17
2018-03-14T21:58:15.020Z,15.60
2018-03-14T22:00:43.357Z,16.03
2018-03-14T22:03:11.657Z,16.10
2018-03-14T22:05:39.896Z,17.57
2018-03-14T22:08:09.003Z,16.37
2018-03-14T22:10:38.103Z,16.47
2018-03-14T22:13:06.325Z,17.27
2018-03-14T22:15:34.594Z,17.10
2018-03-14T22:18:02.884Z,18.53
2018-03-14T22:20:31.165Z,18.57
2018-03-14T22:22:59.471Z,17.20
2018-03-14T22:25:28.489Z,18.07
2018-03-14T22:27:56.758Z,17.57
2018-03-14T22:30:26.045Z,17.47
2018-03-14T22:32:55.065Z,17.70
2018-03-14T22:35:23.335Z,18.30
2018-03-14T22:37:51.602Z,17.23
2018-03-14T22:40:19.885Z,17.77
2018-03-14T22:42:48.151Z,18.03
2018-03-14T22:45:16.395Z,18.47
2018-03-14T22:47:44.685Z,18.13
2018-03-14T22:50:13.741Z,17.83
2018-03-14T22:52:42.012Z,16.77
2018-03-14T22:55:10.298Z,17.50
2018-03-14T22:57:38.605Z,17.57
2018-03-14T23:00:07.625Z,16.43
2018-03-14T23:02:35.941Z,18.15
2018-03-14T23:05:05.058Z,18.10
2018-03-14T23:07:33.350Z,16.87
2018-03-14T23:10:01.661Z,18.33
2018-03-14T23:12:29.980Z,17.47
2018-03-14T23:14:58.285Z,16.33
2018-03-14T23:17:27.326Z,16.73
2018-03-14T23:19:55.620Z,17.37
2018-03-14T23:22:23.914Z,18.00
2018-03-14T23:24:52.200Z,17.97
2018-03-14T23:27:21.290Z,17.37
2018-03-14T23:29:49.608Z,15.95
2018-03-14T23:32:17.890Z,18.57
2018-03-14T23:34:46.186Z,17.17
2018-03-14T23:37:14.494Z,17.33
2018-03-14T23:39:42.840Z,17.10
2018-03-14T23:42:11.099Z,16.93
2018-03-14T23:44:39.357Z,17.37
2018-03-14T23:47:07.651Z,16.60
2018-03-14T23:49:35.942Z,17.33
2018-03-14T23:52:04.204Z,16.77
2018-03-14T23:54:32.480Z,17.13
2018-03-14T23:57:00.762Z,18.02
2018-03-14T23:59:29.811Z,17.13
